createdAt,value
2024-01-24T00:01:02.901Z,75.22
2024-01-24T00:03:48.775Z,75.38
2024-01-24T00:06:16.499Z,75.65
2024-01-24T00:08:44.095Z,75.55
2024-01-24T00:11:11.955Z,75.72
2024-01-24T00:13:39.566Z,75.81
2024-01-24T00:16:07.821Z,76.07
2024-01-24T00:18:35.487Z,76.10
2024-01-24T00:21:03.317Z,76.04
2024-01-24T00:23:31.161Z,76.06
2024-01-24T00:25:58.910Z,75.93
2024-01-24T00:28:28.065Z,76.04
2024-01-24T00:30:55.734Z,76.08
2024-01-24T00:33:24.549Z,76.20
2024-01-24T00:35:52.131Z,76.12
2024-01-24T00:38:19.733Z,76.26
2024-01-24T00:40:47.328Z,76.21
2024-01-24T00:43:15.096Z,76.23
2024-01-24T00:45:42.712Z,76.26
2024-01-24T00:48:10.803Z,76.20
2024-01-24T00:50:38.652Z,76.47
2024-01-24T00:53:07.511Z,76.44
2024-01-24T00:55:35.131Z,76.21
2024-01-24T00:58:03.068Z,76.03
2024-01-24T01:00:30.995Z,76.26
2024-01-24T01:02:58.671Z,76.29
2024-01-24T01:05:26.379Z,76.26
2024-01-24T01:07:54.066Z,76.21
2024-01-24T01:10:21.833Z,76.23
2024-01-24T01:12:49.830Z,76.18
2024-01-24T01:15:17.687Z,76.05
2024-01-24T01:17:45.352Z,75.97
2024-01-24T01:20:13.420Z,76.00
2024-01-24T01:22:41.553Z,75.98
2024-01-24T01:25:09.610Z,76.25
2024-01-24T01:27:37.311Z,76.34
2024-01-24T01:30:05.797Z,76.32
2024-01-24T01:32:33.480Z,76.19
2024-01-24T01:35:01.090Z,76.36
2024-01-24T01:37:28.735Z,76.16
2024-01-24T01:39:56.414Z,76.37
2024-01-24T01:42:24.048Z,76.32
2024-01-24T01:44:51.654Z,76.34
2024-01-24T01:47:19.659Z,76.43
2024-01-24T01:49:47.535Z,76.49
2024-01-24T01:52:15.300Z,76.50
2024-01-24T01:54:43.415Z,76.54
2024-01-24T01:57:13.107Z,76.62
2024-01-24T01:59:44.009Z,76.86
2024-01-24T02:02:12.140Z,76.62
2024-01-24T02:04:40.010Z,76.68
2024-01-24T02:07:08.132Z,76.77
2024-01-24T02:09:35.997Z,76.80
2024-01-24T02:12:04.041Z,77.13
2024-01-24T02:14:31.657Z,77.11
2024-01-24T02:16:59.216Z,77.02
2024-01-24T02:19:27.305Z,76.90
2024-01-24T02:21:55.156Z,77.14
2024-01-24T02:24:23.222Z,77.17
2024-01-24T02:26:51.754Z,77.10
2024-01-24T02:29:19.456Z,77.27
2024-01-24T02:31:47.200Z,77.27
2024-01-24T02:34:14.891Z,77.30
2024-01-24T02:36:42.676Z,77.20
2024-01-24T02:39:10.461Z,77.13
2024-01-24T02:41:40.919Z,77.42
2024-01-24T02:44:08.540Z,77.51
2024-01-24T02:46:36.149Z,77.35
2024-01-24T02:49:04.117Z,77.45
2024-01-24T02:51:32.043Z,77.48
2024-01-24T02:53:59.984Z,77.35
2024-01-24T02:56:27.632Z,77.57
2024-01-24T02:58:55.267Z,77.67
2024-01-24T03:01:23.008Z,77.59
2024-01-24T03:03:50.910Z,77.70
2024-01-24T03:06:19.039Z,77.73
2024-01-24T03:09:00.224Z,77.63
2024-01-24T03:11:28.049Z,77.62
2024-01-24T03:13:55.676Z,77.77
2024-01-24T03:16:23.355Z,77.65
2024-01-24T03:18:52.874Z,77.57
2024-01-24T03:21:20.669Z,77.37
2024-01-24T03:23:48.360Z,77.35
2024-01-24T03:26:16.637Z,77.45
2024-01-24T03:28:44.680Z,77.51
2024-01-24T03:31:12.512Z,77.51
2024-01-24T03:33:40.229Z,77.56
2024-01-24T03:36:08.421Z,77.33
2024-01-24T03:38:36.212Z,77.12
2024-01-24T03:41:03.946Z,77.35
2024-01-24T03:43:31.682Z,77.22
2024-01-24T03:46:01.182Z,77.13
2024-01-24T03:48:28.957Z,76.90
2024-01-24T03:50:56.650Z,76.77
2024-01-24T03:53:24.199Z,76.90
2024-01-24T03:55:52.121Z,76.88
2024-01-24T03:58:20.024Z,76.91
2024-01-24T04:00:47.850Z,76.92
2024-01-24T04:03:15.566Z,76.76
2024-01-24T04:05:43.200Z,76.71
2024-01-24T04:08:10.834Z,76.82
2024-01-24T04:10:38.556Z,76.64
2024-01-24T04:13:06.119Z,76.73
2024-01-24T04:15:33.813Z,76.53
2024-01-24T04:18:01.486Z,76.65
2024-01-24T04:20:30.003Z,76.63
2024-01-24T04:22:57.692Z,76.72
2024-01-24T04:25:25.281Z,76.63
2024-01-24T04:27:53.003Z,76.56
2024-01-24T04:30:20.910Z,76.76
2024-01-24T04:32:48.752Z,76.43
2024-01-24T04:35:16.405Z,76.74
2024-01-24T04:37:43.972Z,76.39
2024-01-24T04:40:12.891Z,76.28
2024-01-24T04:42:40.549Z,76.36
2024-01-24T04:45:08.656Z,76.64
2024-01-24T04:47:36.366Z,76.51
2024-01-24T04:50:05.341Z,77.01
2024-01-24T04:52:33.064Z,77.38
2024-01-24T04:55:00.758Z,77.74
2024-01-24T04:57:28.640Z,78.12
2024-01-24T04:59:57.188Z,78.35
2024-01-24T05:02:25.505Z,78.67
2024-01-24T05:04:53.242Z,79.58
2024-01-24T05:07:21.029Z,79.70
2024-01-24T05:09:48.939Z,80.13
2024-01-24T05:12:16.703Z,80.18
2024-01-24T05:14:44.438Z,80.67
2024-01-24T05:17:12.138Z,81.31
2024-01-24T05:19:40.284Z,81.76
2024-01-24T05:22:07.935Z,81.87
2024-01-24T05:24:35.596Z,82.21
2024-01-24T05:27:03.354Z,82.67
2024-01-24T05:29:30.951Z,83.16
2024-01-24T05:31:58.637Z,83.72
2024-01-24T05:34:26.549Z,83.75
2024-01-24T05:36:54.938Z,84.02
2024-01-24T05:39:22.882Z,84.95
2024-01-24T05:41:50.545Z,84.91
2024-01-24T05:44:18.155Z,85.61
2024-01-24T05:46:45.781Z,85.62
2024-01-24T05:49:13.519Z,85.48
2024-01-24T05:51:43.576Z,86.34
2024-01-24T05:54:11.447Z,86.15
2024-01-24T05:56:39.499Z,86.17
2024-01-24T05:59:07.609Z,86.53
2024-01-24T06:01:35.428Z,86.84
2024-01-24T06:04:03.304Z,86.89
2024-01-24T06:06:32.149Z,86.81
2024-01-24T06:08:59.961Z,87.03
2024-01-24T06:11:27.753Z,86.99
2024-01-24T06:13:55.502Z,87.34
2024-01-24T06:16:23.102Z,86.94
2024-01-24T06:18:50.820Z,86.97
2024-01-24T06:21:18.495Z,87.26
2024-01-24T06:23:46.159Z,87.23
2024-01-24T06:26:14.934Z,87.08
2024-01-24T06:28:42.598Z,87.22
2024-01-24T06:31:10.242Z,87.36
2024-01-24T06:33:38.078Z,87.12
2024-01-24T06:36:05.822Z,87.42
2024-01-24T06:38:33.432Z,87.59
2024-01-24T06:41:01.014Z,87.56
2024-01-24T06:43:28.648Z,87.78
2024-01-24T06:45:56.409Z,87.95
2024-01-24T06:48:24.181Z,87.58
2024-01-24T06:50:51.814Z,88.10
2024-01-24T06:53:19.820Z,87.85
2024-01-24T06:55:47.831Z,88.21
2024-01-24T06:58:15.473Z,88.12
2024-01-24T07:00:43.167Z,88.23
2024-01-24T07:03:11.043Z,88.45
2024-01-24T07:05:38.706Z,88.50
2024-01-24T07:08:06.736Z,88.24
2024-01-24T07:10:34.810Z,88.45
2024-01-24T07:13:02.584Z,88.66
2024-01-24T07:15:30.350Z,88.68
2024-01-24T07:17:58.091Z,89.03
2024-01-24T07:20:25.885Z,89.84
2024-01-24T07:22:53.704Z,89.60
2024-01-24T07:25:22.236Z,89.65
2024-01-24T07:27:50.506Z,89.86
2024-01-24T07:30:18.595Z,90.18
2024-01-24T07:32:46.462Z,89.88
2024-01-24T07:35:14.305Z,90.25
2024-01-24T07:37:42.303Z,90.36
2024-01-24T07:40:15.884Z,90.63
2024-01-24T07:42:43.961Z,90.29
2024-01-24T07:45:12.014Z,90.60
2024-01-24T07:47:40.334Z,90.68
2024-01-24T07:50:09.329Z,90.75
2024-01-24T07:52:41.438Z,90.74
2024-01-24T07:55:12.000Z,90.95
2024-01-24T07:57:41.723Z,90.95
2024-01-24T08:00:17.103Z,91.10
2024-01-24T08:02:45.434Z,91.29
2024-01-24T08:05:15.625Z,90.79
2024-01-24T08:07:43.396Z,91.19
2024-01-24T08:10:14.660Z,91.25
2024-01-24T08:12:42.385Z,91.30
2024-01-24T08:15:10.387Z,90.95
2024-01-24T08:17:38.203Z,91.27
2024-01-24T08:20:09.790Z,91.47
2024-01-24T08:22:37.493Z,91.68
2024-01-24T08:25:05.928Z,91.52
2024-01-24T08:27:33.674Z,91.30
2024-01-24T08:30:01.500Z,91.11
2024-01-24T08:32:29.223Z,91.37
2024-01-24T08:34:57.084Z,91.25
2024-01-24T08:37:24.865Z,91.90
2024-01-24T08:39:52.663Z,91.82
2024-01-24T08:42:20.680Z,91.22
2024-01-24T08:44:48.287Z,91.76
2024-01-24T08:47:15.969Z,91.56
2024-01-24T08:49:43.666Z,91.61
2024-01-24T08:52:11.364Z,91.52
2024-01-24T08:54:39.571Z,91.82
2024-01-24T08:57:07.536Z,91.97
2024-01-24T08:59:35.204Z,92.03
2024-01-24T09:02:06.145Z,92.21
2024-01-24T09:04:34.765Z,92.23
2024-01-24T09:07:03.482Z,92.26
2024-01-24T09:09:33.837Z,92.67
2024-01-24T09:12:02.157Z,92.74
2024-01-24T09:14:30.155Z,92.43
2024-01-24T09:16:58.031Z,92.75
2024-01-24T09:19:26.154Z,92.76
2024-01-24T09:21:54.068Z,92.87
2024-01-24T09:24:21.855Z,92.85
2024-01-24T09:26:49.616Z,93.01
2024-01-24T09:29:17.949Z,93.08
2024-01-24T09:31:47.539Z,93.28
2024-01-24T09:34:18.298Z,93.38
2024-01-24T09:36:46.233Z,92.98
2024-01-24T09:39:13.982Z,93.36
2024-01-24T09:41:43.209Z,92.76
2024-01-24T09:44:13.149Z,93.31
2024-01-24T09:46:43.710Z,93.19
2024-01-24T09:49:11.636Z,93.66
2024-01-24T09:51:39.713Z,93.24
2024-01-24T09:54:07.915Z,93.25
2024-01-24T09:56:39.618Z,93.47
2024-01-24T09:59:08.568Z,93.27
2024-01-24T10:01:38.793Z,93.56
2024-01-24T10:04:06.986Z,93.21
2024-01-24T10:06:42.651Z,93.18
2024-01-24T10:09:10.503Z,93.07
2024-01-24T10:11:38.141Z,93.16
2024-01-24T10:14:06.027Z,93.16
2024-01-24T10:16:33.722Z,93.08
2024-01-24T10:19:01.589Z,93.01
2024-01-24T10:21:29.330Z,93.12
2024-01-24T10:23:57.741Z,92.96
2024-01-24T10:26:28.699Z,92.79
2024-01-24T10:28:56.972Z,92.69
2024-01-24T10:31:25.125Z,92.28
2024-01-24T10:33:59.428Z,92.00
2024-01-24T10:36:32.929Z,91.72
2024-01-24T10:39:05.003Z,91.97
2024-01-24T10:41:34.316Z,91.44
2024-01-24T10:44:06.157Z,91.66
2024-01-24T10:46:34.552Z,91.89
2024-01-24T10:49:02.650Z,91.42
2024-01-24T10:51:30.885Z,91.60
2024-01-24T10:53:58.948Z,91.53
2024-01-24T10:56:27.915Z,91.70
2024-01-24T10:58:56.823Z,91.29
2024-01-24T11:01:25.541Z,91.13
2024-01-24T11:03:55.008Z,90.96
2024-01-24T11:06:23.702Z,90.66
2024-01-24T11:09:12.062Z,90.62
2024-01-24T11:11:39.761Z,90.32
2024-01-24T11:14:09.940Z,90.20
2024-01-24T11:16:41.117Z,89.92
2024-01-24T11:19:24.948Z,90.17
2024-01-24T11:21:53.870Z,90.08
2024-01-24T11:24:44.927Z,89.70
2024-01-24T11:27:25.339Z,89.87
2024-01-24T11:29:53.550Z,89.65
2024-01-24T11:32:48.943Z,89.26
2024-01-24T11:35:38.585Z,88.95
2024-01-24T11:38:16.890Z,88.76
2024-01-24T11:40:53.638Z,89.14
2024-01-24T11:43:28.947Z,88.79
2024-01-24T11:46:01.425Z,87.71
2024-01-24T11:48:30.902Z,87.15
2024-01-24T11:51:02.827Z,86.48
2024-01-24T11:53:30.695Z,85.56
2024-01-24T11:56:00.775Z,84.77
2024-01-24T11:58:29.645Z,84.87
2024-01-24T12:01:04.881Z,84.36
2024-01-24T12:03:32.751Z,83.99
2024-01-24T12:06:00.822Z,84.50
2024-01-24T12:08:28.910Z,84.18
2024-01-24T12:10:56.526Z,84.13
2024-01-24T12:13:25.257Z,84.31
2024-01-24T12:15:53.222Z,83.73
2024-01-24T12:18:21.476Z,83.72
2024-01-24T12:20:51.050Z,84.12
2024-01-24T12:23:20.347Z,83.50
2024-01-24T12:25:48.193Z,83.42
2024-01-24T12:28:16.863Z,83.69
2024-01-24T12:30:50.727Z,83.48
2024-01-24T12:33:18.931Z,83.38
2024-01-24T12:35:48.001Z,83.85
2024-01-24T12:38:15.891Z,83.54
2024-01-24T12:40:48.843Z,83.35
2024-01-24T12:43:17.533Z,82.18
2024-01-24T12:45:45.365Z,81.37
2024-01-24T12:48:13.464Z,80.22
2024-01-24T12:50:41.515Z,79.67
2024-01-24T12:53:09.377Z,79.87
2024-01-24T12:55:36.992Z,79.81
2024-01-24T12:58:05.825Z,79.46
2024-01-24T13:00:34.598Z,79.69
2024-01-24T13:03:04.920Z,79.93
2024-01-24T13:05:39.681Z,80.08
2024-01-24T13:08:14.380Z,79.96
2024-01-24T13:10:46.569Z,80.21
2024-01-24T13:13:15.402Z,80.36
2024-01-24T13:15:46.045Z,80.52
2024-01-24T13:18:13.920Z,80.62
2024-01-24T13:20:41.685Z,80.89
2024-01-24T13:23:09.306Z,81.10
2024-01-24T13:25:37.125Z,81.86
2024-01-24T13:28:05.212Z,82.45
2024-01-24T13:30:33.836Z,82.80
2024-01-24T13:33:02.127Z,83.99
2024-01-24T13:35:29.906Z,84.85
2024-01-24T13:37:59.154Z,84.92
2024-01-24T13:40:27.015Z,85.15
2024-01-24T13:42:55.079Z,85.07
2024-01-24T13:45:23.792Z,85.42
2024-01-24T13:47:51.535Z,85.38
2024-01-24T13:50:19.351Z,85.74
2024-01-24T13:52:47.390Z,85.66
2024-01-24T13:55:15.220Z,85.63
2024-01-24T13:57:44.672Z,85.61
2024-01-24T14:00:15.349Z,85.32
2024-01-24T14:02:43.988Z,85.24
2024-01-24T14:05:12.436Z,85.03
2024-01-24T14:07:44.353Z,84.82
2024-01-24T14:10:13.202Z,84.98
2024-01-24T14:12:41.589Z,84.89
2024-01-24T14:15:19.614Z,84.93
2024-01-24T14:17:56.173Z,84.59
2024-01-24T14:20:23.990Z,84.47
2024-01-24T14:22:52.423Z,84.68
2024-01-24T14:25:21.004Z,84.24
2024-01-24T14:27:48.733Z,83.99
2024-01-24T14:30:17.037Z,83.81
2024-01-24T14:32:44.667Z,83.99
2024-01-24T14:35:16.349Z,83.38
2024-01-24T14:37:44.887Z,83.21
2024-01-24T14:40:14.838Z,83.09
2024-01-24T14:42:42.728Z,82.90
2024-01-24T14:45:11.032Z,82.40
2024-01-24T14:47:38.943Z,81.87
2024-01-24T14:50:08.829Z,81.65
2024-01-24T14:52:36.732Z,81.35
2024-01-24T14:55:05.458Z,81.18
2024-01-24T14:57:33.808Z,81.11
2024-01-24T15:00:01.964Z,80.89
2024-01-24T15:02:29.642Z,81.00
2024-01-24T15:04:59.247Z,80.91
2024-01-24T15:07:27.127Z,80.82
2024-01-24T15:09:55.106Z,80.68
2024-01-24T15:12:22.930Z,80.61
2024-01-24T15:14:50.706Z,80.74
2024-01-24T15:17:20.001Z,80.40
2024-01-24T15:19:49.774Z,80.26
2024-01-24T15:22:20.573Z,79.97
2024-01-24T15:24:49.871Z,80.11
2024-01-24T15:27:18.013Z,79.95
2024-01-24T15:29:46.096Z,79.86
2024-01-24T15:32:13.844Z,79.87
2024-01-24T15:34:41.588Z,79.79
2024-01-24T15:37:09.577Z,79.97
2024-01-24T15:39:37.287Z,79.98
2024-01-24T15:42:09.738Z,80.01
2024-01-24T15:44:37.618Z,79.67
2024-01-24T15:47:05.561Z,79.99
2024-01-24T15:49:33.321Z,79.99
2024-01-24T15:52:01.445Z,79.76
2024-01-24T15:54:29.234Z,79.91
2024-01-24T15:56:57.414Z,80.02
2024-01-24T15:59:25.158Z,80.22
2024-01-24T16:01:52.902Z,80.16
2024-01-24T16:04:21.323Z,80.14
2024-01-24T16:06:49.332Z,80.00
2024-01-24T16:09:19.969Z,80.02
2024-01-24T16:11:47.740Z,79.80
2024-01-24T16:14:16.831Z,79.62
2024-01-24T16:16:47.129Z,79.44
2024-01-24T16:19:14.978Z,79.29
2024-01-24T16:21:46.710Z,79.11
2024-01-24T16:24:14.456Z,79.02
2024-01-24T16:26:42.148Z,78.88
2024-01-24T16:29:09.895Z,78.62
2024-01-24T16:31:37.504Z,78.30
2024-01-24T16:34:06.342Z,78.57
2024-01-24T16:36:34.131Z,78.60
2024-01-24T16:39:02.145Z,78.38
2024-01-24T16:41:33.171Z,78.36
2024-01-24T16:44:01.542Z,78.38
2024-01-24T16:46:29.188Z,78.13
2024-01-24T16:48:56.957Z,77.82
2024-01-24T16:51:25.400Z,77.34
2024-01-24T16:53:54.254Z,76.70
2024-01-24T16:56:21.898Z,76.38
2024-01-24T16:58:49.571Z,76.09
2024-01-24T17:01:17.226Z,74.95
2024-01-24T17:03:45.979Z,74.58
2024-01-24T17:06:13.986Z,74.32
2024-01-24T17:08:41.589Z,73.84
2024-01-24T17:11:10.029Z,73.16
2024-01-24T17:13:37.640Z,72.76
2024-01-24T17:16:05.803Z,72.48
2024-01-24T17:18:33.651Z,72.36
2024-01-24T17:21:01.371Z,71.76
2024-01-24T17:23:28.978Z,71.49
2024-01-24T17:25:56.846Z,71.19
2024-01-24T17:28:24.465Z,71.41
2024-01-24T17:30:53.631Z,71.64
2024-01-24T17:33:21.386Z,71.34
2024-01-24T17:35:49.263Z,71.62
2024-01-24T17:38:19.418Z,71.69
2024-01-24T17:40:47.485Z,71.69
2024-01-24T17:43:15.211Z,71.67
2024-01-24T17:45:42.961Z,71.73
2024-01-24T17:48:11.369Z,72.09
2024-01-24T17:50:39.194Z,72.03
2024-01-24T17:53:06.924Z,72.17
2024-01-24T17:55:34.605Z,72.15
2024-01-24T17:58:02.320Z,72.15
2024-01-24T18:00:30.035Z,72.14
2024-01-24T18:02:57.822Z,72.17
2024-01-24T18:05:25.609Z,72.24
2024-01-24T18:07:53.320Z,72.14
2024-01-24T18:10:21.403Z,72.14
2024-01-24T18:12:49.171Z,71.84
2024-01-24T18:15:18.239Z,71.95
2024-01-24T18:17:45.927Z,71.66
2024-01-24T18:20:13.682Z,71.76
2024-01-24T18:22:43.097Z,71.87
2024-01-24T18:25:11.767Z,71.99
2024-01-24T18:27:39.449Z,72.09
2024-01-24T18:30:08.049Z,71.84
2024-01-24T18:32:35.914Z,72.04
2024-01-24T18:35:04.476Z,72.25
2024-01-24T18:37:32.731Z,72.26
2024-01-24T18:40:00.446Z,72.62
2024-01-24T18:42:28.785Z,72.62
2024-01-24T18:44:57.291Z,72.73
2024-01-24T18:47:26.116Z,72.50
2024-01-24T18:49:53.977Z,72.35
2024-01-24T18:52:22.716Z,72.46
2024-01-24T18:54:50.753Z,72.88
2024-01-24T18:57:19.087Z,72.96
2024-01-24T18:59:47.026Z,73.01
2024-01-24T19:02:16.774Z,73.07
2024-01-24T19:04:46.334Z,73.24
2024-01-24T19:07:15.564Z,73.19
2024-01-24T19:09:44.543Z,73.36
2024-01-24T19:12:12.317Z,73.45
2024-01-24T19:14:43.102Z,73.63
2024-01-24T19:17:10.973Z,73.56
2024-01-24T19:19:38.630Z,72.98
2024-01-24T19:22:06.359Z,73.19
2024-01-24T19:24:35.239Z,73.08
2024-01-24T19:27:03.260Z,72.94
2024-01-24T19:29:31.119Z,72.86
2024-01-24T19:31:58.848Z,73.10
2024-01-24T19:34:26.593Z,72.96
2024-01-24T19:36:54.293Z,72.74
2024-01-24T19:39:22.630Z,72.75
2024-01-24T19:41:50.406Z,72.68
2024-01-24T19:44:18.258Z,72.78
2024-01-24T19:46:46.120Z,72.96
2024-01-24T19:49:14.350Z,72.87
2024-01-24T19:51:42.147Z,73.01
2024-01-24T19:54:09.847Z,72.87
2024-01-24T19:56:37.443Z,72.95
2024-01-24T19:59:05.176Z,73.03
2024-01-24T20:01:32.954Z,73.52
2024-01-24T20:04:00.940Z,73.77
2024-01-24T20:06:28.688Z,74.01
2024-01-24T20:08:56.380Z,74.56
2024-01-24T20:11:23.958Z,75.17
2024-01-24T20:13:51.837Z,75.24
2024-01-24T20:16:19.602Z,75.48
2024-01-24T20:18:47.239Z,75.23
2024-01-24T20:21:15.090Z,75.00
2024-01-24T20:23:42.951Z,75.02
2024-01-24T20:26:13.346Z,74.73
2024-01-24T20:28:41.018Z,74.82
2024-01-24T20:31:08.813Z,74.76
2024-01-24T20:33:43.561Z,74.63
2024-01-24T20:36:11.574Z,74.59
2024-01-24T20:38:42.018Z,74.50
2024-01-24T20:41:10.433Z,74.60
2024-01-24T20:43:39.116Z,74.70
2024-01-24T20:46:08.360Z,74.74
2024-01-24T20:48:36.418Z,74.82
2024-01-24T20:51:04.914Z,74.79
2024-01-24T20:53:32.561Z,75.00
2024-01-24T20:56:00.224Z,74.99
2024-01-24T20:58:28.212Z,74.95
2024-01-24T21:00:56.017Z,75.20
2024-01-24T21:03:24.123Z,74.99
2024-01-24T21:05:52.946Z,75.07
2024-01-24T21:08:21.486Z,74.90
2024-01-24T21:10:55.643Z,74.83
2024-01-24T21:13:29.988Z,74.53
2024-01-24T21:15:57.901Z,74.72
2024-01-24T21:18:27.300Z,74.79
2024-01-24T21:20:56.978Z,74.46
2024-01-24T21:23:26.031Z,74.38
2024-01-24T21:25:53.643Z,74.07
2024-01-24T21:28:21.278Z,73.67
2024-01-24T21:30:49.106Z,73.90
2024-01-24T21:33:16.942Z,74.30
2024-01-24T21:35:44.683Z,74.55
2024-01-24T21:38:14.147Z,73.48
2024-01-24T21:40:42.113Z,72.75
2024-01-24T21:43:09.740Z,72.24
2024-01-24T21:45:37.478Z,71.68
2024-01-24T21:48:06.275Z,70.56
2024-01-24T21:50:33.928Z,70.57
2024-01-24T21:53:01.718Z,70.06
2024-01-24T21:55:29.375Z,69.72
2024-01-24T21:57:57.238Z,69.55
2024-01-24T22:00:24.946Z,69.94
2024-01-24T22:02:53.527Z,69.91
2024-01-24T22:05:22.159Z,69.73
2024-01-24T22:07:51.202Z,70.12
2024-01-24T22:10:19.282Z,70.54
2024-01-24T22:12:48.393Z,70.70
2024-01-24T22:15:16.215Z,71.01
2024-01-24T22:17:44.036Z,71.28
2024-01-24T22:20:12.343Z,71.62
2024-01-24T22:22:40.054Z,71.69
2024-01-24T22:25:08.445Z,71.40
2024-01-24T22:27:36.228Z,71.66
2024-01-24T22:30:06.026Z,71.57
2024-01-24T22:32:34.132Z,71.60
2024-01-24T22:35:02.644Z,71.08
2024-01-24T22:37:30.622Z,71.05
2024-01-24T22:39:58.620Z,70.87
2024-01-24T22:42:26.386Z,70.94
2024-01-24T22:44:54.043Z,70.85
2024-01-24T22:47:22.143Z,70.61
2024-01-24T22:49:50.026Z,70.77
2024-01-24T22:52:18.887Z,71.00
2024-01-24T22:54:46.697Z,71.33
2024-01-24T22:57:14.388Z,71.34
2024-01-24T22:59:42.008Z,71.06
2024-01-24T23:02:10.529Z,70.92
2024-01-24T23:04:38.390Z,71.04
2024-01-24T23:07:06.156Z,70.96
2024-01-24T23:09:34.009Z,70.96
2024-01-24T23:12:01.622Z,70.70
2024-01-24T23:14:29.213Z,71.09
2024-01-24T23:16:56.821Z,71.04
2024-01-24T23:19:24.467Z,71.22
2024-01-24T23:21:52.368Z,70.90
2024-01-24T23:24:20.155Z,70.40
2024-01-24T23:26:48.174Z,70.22
2024-01-24T23:29:15.804Z,70.35
2024-01-24T23:31:43.552Z,70.49
2024-01-24T23:34:12.510Z,70.42
2024-01-24T23:36:40.320Z,70.48
2024-01-24T23:39:08.101Z,70.44
2024-01-24T23:41:38.985Z,70.47
2024-01-24T23:44:07.123Z,70.16
2024-01-24T23:46:34.695Z,70.13
2024-01-24T23:49:02.653Z,69.82
2024-01-24T23:51:33.588Z,69.97
2024-01-24T23:54:03.324Z,70.03
2024-01-24T23:56:30.947Z,70.18
2024-01-24T23:58:58.616Z,70.35
